createdAt,value
2023-02-06T00:00:17.026Z,1035.25
2023-02-06T00:01:17.024Z,1035.23
2023-02-06T00:02:17.097Z,1035.28
2023-02-06T00:03:17.118Z,1035.30
2023-02-06T00:04:17.091Z,1035.25
2023-02-06T00:05:17.159Z,1035.26
2023-02-06T00:06:17.135Z,1035.26
2023-02-06T00:07:17.155Z,1035.27
2023-02-06T00:08:17.179Z,1035.27
2023-02-06T00:09:17.200Z,1035.26
2023-02-06T00:10:17.234Z,1035.28
2023-02-06T00:11:17.244Z,1035.27
2023-02-06T00:12:17.265Z,1035.32
2023-02-06T00:13:17.290Z,1035.27
2023-02-06T00:14:17.311Z,1035.25
2023-02-06T00:15:17.332Z,1035.20
2023-02-06T00:16:17.485Z,1035.29
2023-02-06T00:17:17.380Z,1035.23
2023-02-06T00:18:17.418Z,1035.22
2023-02-06T00:19:17.421Z,1035.20
2023-02-06T00:20:17.444Z,1035.25
2023-02-06T00:21:17.462Z,1035.23
2023-02-06T00:22:17.488Z,1035.25
2023-02-06T00:23:17.505Z,1035.24
2023-02-06T00:24:17.530Z,1035.23
2023-02-06T00:25:17.553Z,1035.23
2023-02-06T00:26:17.653Z,1035.26
2023-02-06T00:27:17.592Z,1035.27
2023-02-06T00:28:17.660Z,1035.26
2023-02-06T00:29:17.639Z,1035.31
2023-02-06T00:30:17.665Z,1035.24
2023-02-06T00:31:17.907Z,1035.27
2023-02-06T00:32:17.757Z,1035.21
2023-02-06T00:33:17.950Z,1035.17
2023-02-06T00:34:17.753Z,1035.18
2023-02-06T00:35:17.774Z,1035.09
2023-02-06T00:36:17.805Z,1035.08
2023-02-06T00:37:17.819Z,1035.20
2023-02-06T00:38:17.844Z,1035.14
2023-02-06T00:39:17.861Z,1035.07
2023-02-06T00:40:17.885Z,1035.14
2023-02-06T00:41:17.906Z,1035.10
2023-02-06T00:42:17.929Z,1035.07
2023-02-06T00:43:17.949Z,1035.09
2023-02-06T00:44:17.978Z,1035.05
2023-02-06T00:45:17.995Z,1035.08
2023-02-06T00:46:18.051Z,1035.10
2023-02-06T00:47:18.038Z,1035.11
2023-02-06T00:48:24.050Z,1035.15
2023-02-06T00:49:18.105Z,1035.15
2023-02-06T00:50:18.113Z,1035.14
2023-02-06T00:51:18.127Z,1035.12
2023-02-06T00:52:18.148Z,1035.18
2023-02-06T00:53:18.168Z,1035.14
2023-02-06T00:54:18.192Z,1035.18
2023-02-06T00:55:18.214Z,1035.14
2023-02-06T00:56:18.234Z,1035.16
2023-02-06T00:57:18.254Z,1035.20
2023-02-06T00:58:18.280Z,1035.18
2023-02-06T00:59:18.299Z,1035.22
2023-02-06T01:00:18.321Z,1035.18
2023-02-06T01:01:18.435Z,1035.15
2023-02-06T01:02:18.365Z,1035.23
2023-02-06T01:03:18.398Z,1035.18
2023-02-06T01:04:18.409Z,1035.22
2023-02-06T01:05:18.447Z,1035.20
2023-02-06T01:06:18.450Z,1035.18
2023-02-06T01:07:18.469Z,1035.21
2023-02-06T01:08:18.495Z,1035.21
2023-02-06T01:09:18.510Z,1035.19
2023-02-06T01:10:18.537Z,1035.20
2023-02-06T01:11:18.555Z,1035.20
2023-02-06T01:12:18.575Z,1035.23
2023-02-06T01:13:18.598Z,1035.29
2023-02-06T01:14:18.620Z,1035.31
2023-02-06T01:15:18.645Z,1035.31
2023-02-06T01:16:18.680Z,1035.31
2023-02-06T01:17:18.684Z,1035.32
2023-02-06T01:18:18.719Z,1035.35
2023-02-06T01:19:18.725Z,1035.31
2023-02-06T01:20:19.633Z,1035.28
2023-02-06T01:21:18.790Z,1035.30
2023-02-06T01:22:18.792Z,1035.34
2023-02-06T01:23:18.810Z,1035.31
2023-02-06T01:24:18.834Z,1035.33
2023-02-06T01:25:18.859Z,1035.31
2023-02-06T01:26:18.875Z,1035.33
2023-02-06T01:27:18.897Z,1035.40
2023-02-06T01:28:18.923Z,1035.38
2023-02-06T01:29:18.949Z,1035.37
2023-02-06T01:30:18.961Z,1035.38
2023-02-06T01:31:19.037Z,1035.32
2023-02-06T01:32:19.004Z,1035.32
2023-02-06T01:33:19.023Z,1035.30
2023-02-06T01:34:19.056Z,1035.29
2023-02-06T01:35:19.070Z,1035.31
2023-02-06T01:36:19.094Z,1035.31
2023-02-06T01:37:19.142Z,1035.29
2023-02-06T01:38:19.133Z,1035.26
2023-02-06T01:39:19.161Z,1035.29
2023-02-06T01:40:19.183Z,1035.28
2023-02-06T01:41:19.196Z,1035.32
2023-02-06T01:42:19.220Z,1035.32
2023-02-06T01:43:19.243Z,1035.27
2023-02-06T01:44:19.263Z,1035.30
2023-02-06T01:45:19.285Z,1035.32
2023-02-06T01:46:19.315Z,1035.29
2023-02-06T01:47:19.326Z,1035.26
2023-02-06T01:48:19.349Z,1035.35
2023-02-06T01:49:19.371Z,1035.35
2023-02-06T01:50:19.393Z,1035.32
2023-02-06T01:51:19.410Z,1035.31
2023-02-06T01:52:19.432Z,1035.35
2023-02-06T01:53:19.614Z,1035.33
2023-02-06T01:54:19.476Z,1035.30
2023-02-06T01:55:19.497Z,1035.32
2023-02-06T01:56:19.603Z,1035.35
2023-02-06T01:57:19.538Z,1035.36
2023-02-06T01:58:19.562Z,1035.36
2023-02-06T01:59:19.580Z,1035.37
2023-02-06T02:00:19.610Z,1035.38
2023-02-06T02:01:19.625Z,1035.40
2023-02-06T02:02:19.683Z,1035.39
2023-02-06T02:03:19.665Z,1035.39
2023-02-06T02:04:19.685Z,1035.41
2023-02-06T02:05:19.708Z,1035.37
2023-02-06T02:06:19.729Z,1035.38
2023-02-06T02:07:19.752Z,1035.36
2023-02-06T02:08:19.772Z,1035.34
2023-02-06T02:09:19.813Z,1035.35
2023-02-06T02:10:19.820Z,1035.31
2023-02-06T02:11:19.838Z,1035.25
2023-02-06T02:12:19.864Z,1035.30
2023-02-06T02:13:19.880Z,1035.24
2023-02-06T02:14:19.904Z,1035.27
2023-02-06T02:15:19.925Z,1035.27
2023-02-06T02:16:19.982Z,1035.28
2023-02-06T02:17:19.970Z,1035.27
2023-02-06T02:18:19.988Z,1035.27
2023-02-06T02:19:20.013Z,1035.25
2023-02-06T02:20:20.047Z,1035.26
2023-02-06T02:21:20.059Z,1035.20
2023-02-06T02:22:20.074Z,1035.24
2023-02-06T02:23:20.126Z,1035.17
2023-02-06T02:24:20.118Z,1035.17
2023-02-06T02:25:20.159Z,1035.19
2023-02-06T02:26:20.159Z,1035.18
2023-02-06T02:27:20.182Z,1035.20
2023-02-06T02:28:20.224Z,1035.18
2023-02-06T02:29:20.228Z,1035.13
2023-02-06T02:30:20.281Z,1035.14
2023-02-06T02:31:20.295Z,1035.14
2023-02-06T02:32:20.289Z,1035.15
2023-02-06T02:33:20.309Z,1035.10
2023-02-06T02:34:20.335Z,1035.11
2023-02-06T02:35:20.353Z,1035.07
2023-02-06T02:36:20.371Z,1035.07
2023-02-06T02:37:20.410Z,1035.02
2023-02-06T02:38:20.415Z,1035.01
2023-02-06T02:39:20.439Z,1035.01
2023-02-06T02:40:20.459Z,1035.07
2023-02-06T02:41:20.547Z,1035.06
2023-02-06T02:42:20.500Z,1035.12
2023-02-06T02:43:20.523Z,1035.07
2023-02-06T02:44:20.543Z,1035.08
2023-02-06T02:45:20.571Z,1035.13
2023-02-06T02:46:20.589Z,1035.14
2023-02-06T02:47:20.608Z,1035.12
2023-02-06T02:48:20.624Z,1035.11
2023-02-06T02:49:20.648Z,1035.10
2023-02-06T02:50:20.666Z,1035.14
2023-02-06T02:51:20.688Z,1035.17
2023-02-06T02:52:20.709Z,1035.12
2023-02-06T02:53:20.728Z,1035.19
2023-02-06T02:54:20.749Z,1035.14
2023-02-06T02:55:20.785Z,1035.08
2023-02-06T02:56:20.799Z,1035.07
2023-02-06T02:57:20.899Z,1035.09
2023-02-06T02:58:20.842Z,1035.14
2023-02-06T02:59:20.864Z,1035.14
2023-02-06T03:00:20.896Z,1035.17
2023-02-06T03:01:20.958Z,1035.15
2023-02-06T03:02:20.969Z,1035.18
2023-02-06T03:03:20.942Z,1035.18
2023-02-06T03:04:20.961Z,1035.25
2023-02-06T03:05:20.982Z,1035.28
2023-02-06T03:06:21.004Z,1035.29
2023-02-06T03:07:21.027Z,1035.30
2023-02-06T03:08:21.050Z,1035.29
2023-02-06T03:09:21.069Z,1035.32
2023-02-06T03:10:21.092Z,1035.29
2023-02-06T03:11:21.315Z,1035.28
2023-02-06T03:12:21.133Z,1035.31
2023-02-06T03:13:21.180Z,1035.31
2023-02-06T03:14:21.176Z,1035.34
2023-02-06T03:15:21.195Z,1035.37
2023-02-06T03:16:21.282Z,1035.33
2023-02-06T03:17:21.238Z,1035.26
2023-02-06T03:18:21.258Z,1035.32
2023-02-06T03:19:21.280Z,1035.25
2023-02-06T03:20:21.303Z,1035.31
2023-02-06T03:21:21.322Z,1035.29
2023-02-06T03:22:21.343Z,1035.35
2023-02-06T03:23:21.367Z,1035.38
2023-02-06T03:24:21.384Z,1035.42
2023-02-06T03:25:21.408Z,1035.47
2023-02-06T03:26:21.432Z,1035.51
2023-02-06T03:27:21.459Z,1035.54
2023-02-06T03:28:21.469Z,1035.53
2023-02-06T03:29:21.523Z,1035.47
2023-02-06T03:30:21.592Z,1035.48
2023-02-06T03:31:21.594Z,1035.50
2023-02-06T03:32:21.555Z,1035.52
2023-02-06T03:33:21.576Z,1035.45
2023-02-06T03:34:21.597Z,1035.49
2023-02-06T03:35:21.626Z,1035.46
2023-02-06T03:36:21.641Z,1035.53
2023-02-06T03:37:21.661Z,1035.52
2023-02-06T03:38:21.681Z,1035.52
2023-02-06T03:39:21.704Z,1035.49
2023-02-06T03:40:21.726Z,1035.49
2023-02-06T03:41:21.753Z,1035.48
2023-02-06T03:42:21.766Z,1035.46
2023-02-06T03:43:21.789Z,1035.40
2023-02-06T03:44:21.808Z,1035.39
2023-02-06T03:45:21.896Z,1035.37
2023-02-06T03:46:21.875Z,1035.35
2023-02-06T03:47:21.874Z,1035.39
2023-02-06T03:48:21.892Z,1035.44
2023-02-06T03:49:21.917Z,1035.45
2023-02-06T03:50:21.936Z,1035.42
2023-02-06T03:51:21.959Z,1035.45
2023-02-06T03:52:21.978Z,1035.39
2023-02-06T03:53:22.004Z,1035.39
2023-02-06T03:54:22.021Z,1035.42
2023-02-06T03:55:22.061Z,1035.43
2023-02-06T03:56:22.065Z,1035.42
2023-02-06T03:57:22.087Z,1035.37
2023-02-06T03:58:24.437Z,1035.36
2023-02-06T03:59:22.163Z,1035.41
2023-02-06T04:00:22.151Z,1035.42
2023-02-06T04:01:22.260Z,1035.44
2023-02-06T04:02:22.217Z,1035.42
2023-02-06T04:03:22.221Z,1035.43
2023-02-06T04:04:22.234Z,1035.46
2023-02-06T04:05:22.262Z,1035.40
2023-02-06T04:06:22.283Z,1035.44
2023-02-06T04:07:22.314Z,1035.43
2023-02-06T04:08:22.324Z,1035.41
2023-02-06T04:09:22.341Z,1035.39
2023-02-06T04:10:22.365Z,1035.37
2023-02-06T04:11:22.387Z,1035.38
2023-02-06T04:12:22.404Z,1035.37
2023-02-06T04:13:22.432Z,1035.40
2023-02-06T04:14:22.449Z,1035.44
2023-02-06T04:15:22.471Z,1035.45
2023-02-06T04:16:22.519Z,1035.42
2023-02-06T04:17:40.534Z,1035.39
2023-02-06T04:18:22.532Z,1035.39
2023-02-06T04:19:22.555Z,1035.38
2023-02-06T04:20:22.576Z,1035.38
2023-02-06T04:21:22.598Z,1035.34
2023-02-06T04:22:22.621Z,1035.35
2023-02-06T04:23:22.642Z,1035.31
2023-02-06T04:24:22.657Z,1035.32
2023-02-06T04:25:22.700Z,1035.32
2023-02-06T04:26:22.705Z,1035.35
2023-02-06T04:27:22.723Z,1035.37
2023-02-06T04:28:22.796Z,1035.35
2023-02-06T04:29:22.771Z,1035.38
2023-02-06T04:30:22.820Z,1035.37
2023-02-06T04:31:22.902Z,1035.37
2023-02-06T04:32:22.831Z,1035.44
2023-02-06T04:33:22.869Z,1035.36
2023-02-06T04:34:22.867Z,1035.47
2023-02-06T04:35:22.890Z,1035.45
2023-02-06T04:36:22.911Z,1035.43
2023-02-06T04:37:22.930Z,1035.42
2023-02-06T04:38:22.952Z,1035.47
2023-02-06T04:39:22.974Z,1035.44
2023-02-06T04:40:22.992Z,1035.44
2023-02-06T04:41:23.015Z,1035.40
2023-02-06T04:42:23.040Z,1035.41
2023-02-06T04:43:23.062Z,1035.33
2023-02-06T04:44:23.078Z,1035.34
2023-02-06T04:45:23.119Z,1035.35
2023-02-06T04:46:23.156Z,1035.37
2023-02-06T04:47:23.140Z,1035.32
2023-02-06T04:48:23.159Z,1035.34
2023-02-06T04:49:23.201Z,1035.34
2023-02-06T04:50:23.201Z,1035.34
2023-02-06T04:51:23.227Z,1035.34
2023-02-06T04:52:23.243Z,1035.34
2023-02-06T04:53:23.268Z,1035.33
2023-02-06T04:54:23.291Z,1035.40
2023-02-06T04:55:23.307Z,1035.47
2023-02-06T04:56:23.327Z,1035.49
2023-02-06T04:57:23.351Z,1035.52
2023-02-06T04:58:23.369Z,1035.51
2023-02-06T04:59:23.392Z,1035.57
2023-02-06T05:00:23.411Z,1035.58
2023-02-06T05:01:23.476Z,1035.63
2023-02-06T05:02:23.497Z,1035.67
2023-02-06T05:03:23.490Z,1035.66
2023-02-06T05:04:23.493Z,1035.70
2023-02-06T05:05:23.595Z,1035.71
2023-02-06T05:06:23.532Z,1035.71
2023-02-06T05:07:24.362Z,1035.65
2023-02-06T05:08:23.571Z,1035.61
2023-02-06T05:09:23.607Z,1035.66
2023-02-06T05:10:23.612Z,1035.68
2023-02-06T05:11:23.634Z,1035.71
2023-02-06T05:12:23.655Z,1035.75
2023-02-06T05:13:23.688Z,1035.80
2023-02-06T05:14:23.698Z,1035.77
2023-02-06T05:15:23.718Z,1035.81
2023-02-06T05:16:23.739Z,1035.81
2023-02-06T05:17:23.756Z,1035.81
2023-02-06T05:18:23.784Z,1035.75
2023-02-06T05:19:23.798Z,1035.72
2023-02-06T05:20:23.820Z,1035.66
2023-02-06T05:21:23.874Z,1035.66
2023-02-06T05:22:23.858Z,1035.65
2023-02-06T05:23:23.879Z,1035.67
2023-02-06T05:24:23.900Z,1035.62
2023-02-06T05:25:23.918Z,1035.59
2023-02-06T05:26:23.947Z,1035.52
2023-02-06T05:27:23.964Z,1035.54
2023-02-06T05:28:23.982Z,1035.48
2023-02-06T05:29:24.004Z,1035.47
2023-02-06T05:30:24.023Z,1035.50
2023-02-06T05:31:24.174Z,1035.49
2023-02-06T05:32:24.065Z,1035.48
2023-02-06T05:33:24.089Z,1035.51
2023-02-06T05:34:24.108Z,1035.52
2023-02-06T05:35:24.142Z,1035.53
2023-02-06T05:36:24.146Z,1035.54
2023-02-06T05:37:24.191Z,1035.58
2023-02-06T05:38:24.239Z,1035.58
2023-02-06T05:39:24.218Z,1035.64
2023-02-06T05:40:24.231Z,1035.65
2023-02-06T05:41:24.254Z,1035.56
2023-02-06T05:42:24.273Z,1035.52
2023-02-06T05:43:24.302Z,1035.58
2023-02-06T05:44:24.316Z,1035.55
2023-02-06T05:45:24.341Z,1035.49
2023-02-06T05:46:24.377Z,1035.47
2023-02-06T05:47:24.379Z,1035.49
2023-02-06T05:48:24.402Z,1035.46
2023-02-06T05:49:24.421Z,1035.49
2023-02-06T05:50:24.439Z,1035.50
2023-02-06T05:51:24.463Z,1035.53
2023-02-06T05:52:24.482Z,1035.52
2023-02-06T05:53:24.525Z,1035.53
2023-02-06T05:54:24.524Z,1035.50
2023-02-06T05:55:24.547Z,1035.53
2023-02-06T05:56:24.566Z,1035.54
2023-02-06T05:57:24.595Z,1035.55
2023-02-06T05:58:24.610Z,1035.55
2023-02-06T05:59:24.637Z,1035.56
2023-02-06T06:00:24.667Z,1035.54
2023-02-06T06:01:24.675Z,1035.53
2023-02-06T06:02:24.694Z,1035.47
2023-02-06T06:03:24.716Z,1035.51
2023-02-06T06:04:24.793Z,1035.46
2023-02-06T06:05:24.760Z,1035.46
2023-02-06T06:06:24.783Z,1035.41
2023-02-06T06:07:24.801Z,1035.46
2023-02-06T06:08:24.824Z,1035.52
2023-02-06T06:09:24.865Z,1035.43
2023-02-06T06:10:24.863Z,1035.40
2023-02-06T06:11:24.895Z,1035.47
2023-02-06T06:12:24.906Z,1035.46
2023-02-06T06:13:24.927Z,1035.42
2023-02-06T06:14:24.950Z,1035.33
2023-02-06T06:15:24.971Z,1035.36
2023-02-06T06:16:25.048Z,1035.32
2023-02-06T06:17:25.213Z,1035.38
2023-02-06T06:18:25.042Z,1035.37
2023-02-06T06:19:25.057Z,1035.43
2023-02-06T06:20:25.080Z,1035.44
2023-02-06T06:21:25.098Z,1035.46
2023-02-06T06:22:25.120Z,1035.42
2023-02-06T06:23:25.143Z,1035.41
2023-02-06T06:24:25.164Z,1035.47
2023-02-06T06:25:25.207Z,1035.44
2023-02-06T06:26:25.207Z,1035.43
2023-02-06T06:27:25.228Z,1035.43
2023-02-06T06:28:25.248Z,1035.46
2023-02-06T06:29:25.268Z,1035.39
2023-02-06T06:30:25.292Z,1035.37
2023-02-06T06:31:25.441Z,1035.40
2023-02-06T06:32:25.335Z,1035.34
2023-02-06T06:33:25.356Z,1035.34
2023-02-06T06:34:25.378Z,1035.37
2023-02-06T06:35:25.398Z,1035.32
2023-02-06T06:36:25.420Z,1035.42
2023-02-06T06:37:25.441Z,1035.43
2023-02-06T06:38:25.464Z,1035.42
2023-02-06T06:39:25.489Z,1035.38
2023-02-06T06:40:25.509Z,1035.38
2023-02-06T06:41:25.546Z,1035.40
2023-02-06T06:42:25.558Z,1035.42
2023-02-06T06:43:25.574Z,1035.42
2023-02-06T06:44:25.591Z,1035.51
2023-02-06T06:45:25.661Z,1035.47
2023-02-06T06:46:25.636Z,1035.47
2023-02-06T06:47:25.664Z,1035.49
2023-02-06T06:48:25.678Z,1035.46
2023-02-06T06:49:26.848Z,1035.49
2023-02-06T06:50:25.722Z,1035.50
2023-02-06T06:51:25.742Z,1035.50
2023-02-06T06:52:25.937Z,1035.50
2023-02-06T06:53:25.786Z,1035.45
2023-02-06T06:54:25.815Z,1035.46
2023-02-06T06:55:25.831Z,1035.47
2023-02-06T06:56:25.853Z,1035.53
2023-02-06T06:57:25.899Z,1035.47
2023-02-06T06:58:25.896Z,1035.47
2023-02-06T06:59:25.924Z,1035.39
2023-02-06T07:00:25.947Z,1035.41
2023-02-06T07:01:26.038Z,1035.45
2023-02-06T07:02:25.985Z,1035.41
2023-02-06T07:03:26.133Z,1035.40
2023-02-06T07:04:26.025Z,1035.46
2023-02-06T07:05:26.055Z,1035.45
2023-02-06T07:06:26.071Z,1035.44
2023-02-06T07:07:26.149Z,1035.51
2023-02-06T07:08:26.114Z,1035.44
2023-02-06T07:09:26.134Z,1035.40
2023-02-06T07:10:26.162Z,1035.43
2023-02-06T07:11:26.216Z,1035.43
2023-02-06T07:12:26.201Z,1035.39
2023-02-06T07:13:26.251Z,1035.42
2023-02-06T07:14:26.247Z,1035.37
2023-02-06T07:15:26.266Z,1035.36
2023-02-06T07:16:26.430Z,1035.33
2023-02-06T07:17:26.310Z,1035.35
2023-02-06T07:18:26.339Z,1035.35
2023-02-06T07:19:26.354Z,1035.30
2023-02-06T07:20:26.393Z,1035.36
2023-02-06T07:21:26.401Z,1035.34
2023-02-06T07:22:26.514Z,1035.37
2023-02-06T07:23:26.441Z,1035.34
2023-02-06T07:24:26.474Z,1035.36
2023-02-06T07:25:26.486Z,1035.40
2023-02-06T07:26:26.512Z,1035.38
2023-02-06T07:27:26.531Z,1035.37
2023-02-06T07:28:26.553Z,1035.48
2023-02-06T07:29:26.599Z,1035.47
2023-02-06T07:30:26.838Z,1035.49
2023-02-06T07:31:26.633Z,1035.54
2023-02-06T07:32:26.645Z,1035.54
2023-02-06T07:33:26.663Z,1035.48
2023-02-06T07:34:26.686Z,1035.47
2023-02-06T07:35:26.718Z,1035.46
2023-02-06T07:36:26.732Z,1035.42
2023-02-06T07:37:26.752Z,1035.47
2023-02-06T07:38:26.786Z,1035.48
2023-02-06T07:39:26.803Z,1035.46
2023-02-06T07:40:33.679Z,1035.48
2023-02-06T07:41:26.839Z,1035.49
2023-02-06T07:42:26.859Z,1035.47
2023-02-06T07:43:26.882Z,1035.50
2023-02-06T07:44:26.917Z,1035.52
2023-02-06T07:45:26.956Z,1035.54
2023-02-06T07:46:27.026Z,1035.52
2023-02-06T07:47:26.978Z,1035.51
2023-02-06T07:48:26.995Z,1035.53
2023-02-06T07:49:27.014Z,1035.48
2023-02-06T07:50:27.039Z,1035.47
2023-02-06T07:51:27.059Z,1035.47
2023-02-06T07:52:27.083Z,1035.44
2023-02-06T07:53:27.107Z,1035.44
2023-02-06T07:54:27.127Z,1035.48
2023-02-06T07:55:27.147Z,1035.48
2023-02-06T07:56:27.174Z,1035.45
2023-02-06T07:57:27.196Z,1035.41
2023-02-06T07:58:27.218Z,1035.41
2023-02-06T07:59:27.246Z,1035.41
2023-02-06T08:00:27.259Z,1035.41
2023-02-06T08:01:27.345Z,1035.39
2023-02-06T08:02:27.305Z,1035.41
2023-02-06T08:03:27.329Z,1035.39
2023-02-06T08:04:27.380Z,1035.36
2023-02-06T08:05:27.369Z,1035.40
2023-02-06T08:06:27.394Z,1035.36
2023-02-06T08:07:27.415Z,1035.42
2023-02-06T08:08:27.439Z,1035.38
2023-02-06T08:09:27.460Z,1035.37
2023-02-06T08:10:27.502Z,1035.36
2023-02-06T08:11:27.518Z,1035.37
2023-02-06T08:12:27.532Z,1035.39
2023-02-06T08:13:27.549Z,1035.33
2023-02-06T08:14:27.574Z,1035.31
2023-02-06T08:15:27.602Z,1035.32
2023-02-06T08:16:27.709Z,1035.36
2023-02-06T08:17:27.658Z,1035.35
2023-02-06T08:18:27.662Z,1035.36
2023-02-06T08:19:27.684Z,1035.38
2023-02-06T08:20:27.709Z,1035.34
2023-02-06T08:21:27.733Z,1035.38
2023-02-06T08:22:27.753Z,1035.40
2023-02-06T08:23:27.775Z,1035.44
2023-02-06T08:24:27.808Z,1035.44
2023-02-06T08:25:27.821Z,1035.40
2023-02-06T08:26:27.853Z,1035.37
2023-02-06T08:27:27.868Z,1035.40
2023-02-06T08:28:27.895Z,1035.39
2023-02-06T08:29:27.910Z,1035.45
2023-02-06T08:30:27.978Z,1035.43
2023-02-06T08:31:28.059Z,1035.43
2023-02-06T08:32:27.978Z,1035.48
2023-02-06T08:33:28.017Z,1035.45
2023-02-06T08:34:28.025Z,1035.44
2023-02-06T08:35:28.050Z,1035.50
2023-02-06T08:36:28.076Z,1035.52
2023-02-06T08:37:28.092Z,1035.52
2023-02-06T08:38:28.115Z,1035.57
2023-02-06T08:39:28.138Z,1035.62
2023-02-06T08:40:28.178Z,1035.59
2023-02-06T08:41:28.182Z,1035.57
2023-02-06T08:42:28.208Z,1035.60
2023-02-06T08:43:28.337Z,1035.56
2023-02-06T08:44:28.254Z,1035.57
2023-02-06T08:45:28.273Z,1035.51
2023-02-06T08:46:28.411Z,1035.50
2023-02-06T08:47:28.324Z,1035.50
2023-02-06T08:48:28.346Z,1035.51
2023-02-06T08:49:28.513Z,1035.47
2023-02-06T08:50:28.391Z,1035.46
2023-02-06T08:51:28.412Z,1035.44
2023-02-06T08:52:28.437Z,1035.53
2023-02-06T08:53:28.459Z,1035.55
2023-02-06T08:54:28.486Z,1035.54
2023-02-06T08:55:28.506Z,1035.57
2023-02-06T08:56:28.533Z,1035.55
2023-02-06T08:57:28.551Z,1035.47
2023-02-06T08:58:28.578Z,1035.46
2023-02-06T08:59:28.599Z,1035.54
2023-02-06T09:00:28.623Z,1035.51
2023-02-06T09:01:28.695Z,1035.50
2023-02-06T09:02:28.733Z,1035.53
2023-02-06T09:03:28.689Z,1035.54
2023-02-06T09:04:28.716Z,1035.55
2023-02-06T09:05:28.904Z,1035.55
2023-02-06T09:06:28.784Z,1035.53
2023-02-06T09:07:28.788Z,1035.61
2023-02-06T09:08:28.808Z,1035.64
2023-02-06T09:09:28.829Z,1035.59
2023-02-06T09:10:28.854Z,1035.62
2023-02-06T09:11:28.906Z,1035.59
2023-02-06T09:12:28.902Z,1035.61
2023-02-06T09:13:28.924Z,1035.56
2023-02-06T09:14:28.948Z,1035.58
2023-02-06T09:15:28.990Z,1035.60
2023-02-06T09:16:29.000Z,1035.62
2023-02-06T09:17:29.015Z,1035.61
2023-02-06T09:18:29.040Z,1035.52
2023-02-06T09:19:29.063Z,1035.47
2023-02-06T09:20:29.119Z,1035.54
2023-02-06T09:21:29.129Z,1035.52
2023-02-06T09:22:29.136Z,1035.50
2023-02-06T09:23:29.160Z,1035.50
2023-02-06T09:24:29.178Z,1035.55
2023-02-06T09:25:29.201Z,1035.57
2023-02-06T09:26:29.226Z,1035.57
2023-02-06T09:27:29.287Z,1035.55
2023-02-06T09:28:29.275Z,1035.60
2023-02-06T09:29:29.473Z,1035.56
2023-02-06T09:30:29.410Z,1035.57
2023-02-06T09:31:29.397Z,1035.60
2023-02-06T09:32:29.366Z,1035.52
2023-02-06T09:33:29.388Z,1035.54
2023-02-06T09:34:29.421Z,1035.56
2023-02-06T09:35:29.437Z,1035.54
2023-02-06T09:36:29.468Z,1035.56
2023-02-06T09:37:29.514Z,1035.52
2023-02-06T09:38:29.510Z,1035.51
2023-02-06T09:39:29.530Z,1035.46
2023-02-06T09:40:29.560Z,1035.44
2023-02-06T09:41:29.582Z,1035.42
2023-02-06T09:42:29.604Z,1035.37
2023-02-06T09:43:29.626Z,1035.43
2023-02-06T09:44:29.653Z,1035.41
2023-02-06T09:45:29.681Z,1035.43
2023-02-06T09:46:29.736Z,1035.39
2023-02-06T09:47:29.724Z,1035.46
2023-02-06T09:48:29.746Z,1035.48
2023-02-06T09:49:29.772Z,1035.51
2023-02-06T09:50:29.794Z,1035.50
2023-02-06T09:51:29.842Z,1035.51
2023-02-06T09:52:29.844Z,1035.52
2023-02-06T09:53:30.467Z,1035.47
2023-02-06T09:54:29.892Z,1035.48
2023-02-06T09:55:29.914Z,1035.47
2023-02-06T09:56:29.944Z,1035.43
2023-02-06T09:57:29.964Z,1035.38
2023-02-06T09:58:29.986Z,1035.41
2023-02-06T09:59:30.008Z,1035.40
2023-02-06T10:00:30.035Z,1035.43
2023-02-06T10:01:30.088Z,1035.38
2023-02-06T10:02:30.091Z,1035.40
2023-02-06T10:03:30.106Z,1035.49
2023-02-06T10:04:30.188Z,1035.42
2023-02-06T10:05:30.151Z,1035.46
2023-02-06T10:06:30.187Z,1035.41
2023-02-06T10:07:30.200Z,1035.43
2023-02-06T10:08:30.225Z,1035.49
2023-02-06T10:09:30.268Z,1035.45
2023-02-06T10:10:30.273Z,1035.49
2023-02-06T10:11:30.296Z,1035.48
2023-02-06T10:12:30.320Z,1035.45
2023-02-06T10:13:30.353Z,1035.45
2023-02-06T10:14:30.368Z,1035.42
2023-02-06T10:15:30.394Z,1035.42
2023-02-06T10:16:30.531Z,1035.36
2023-02-06T10:17:30.448Z,1035.38
2023-02-06T10:18:30.464Z,1035.38
2023-02-06T10:19:30.495Z,1035.34
2023-02-06T10:20:30.511Z,1035.34
2023-02-06T10:21:30.533Z,1035.35
2023-02-06T10:22:30.557Z,1035.42
2023-02-06T10:23:30.579Z,1035.41
2023-02-06T10:24:30.606Z,1035.38
2023-02-06T10:25:30.646Z,1035.38
2023-02-06T10:26:30.653Z,1035.37
2023-02-06T10:27:30.678Z,1035.32
2023-02-06T10:28:30.719Z,1035.32
2023-02-06T10:29:30.726Z,1035.28
2023-02-06T10:30:30.749Z,1035.28
2023-02-06T10:31:30.857Z,1035.23
2023-02-06T10:32:30.798Z,1035.26
2023-02-06T10:33:30.818Z,1035.22
2023-02-06T10:34:30.852Z,1035.21
2023-02-06T10:35:30.872Z,1035.23
2023-02-06T10:36:30.895Z,1035.27
2023-02-06T10:37:30.920Z,1035.26
2023-02-06T10:38:30.968Z,1035.26
2023-02-06T10:39:30.969Z,1035.17
2023-02-06T10:40:31.020Z,1035.20
2023-02-06T10:41:31.039Z,1035.12
2023-02-06T10:42:31.040Z,1035.11
2023-02-06T10:43:31.089Z,1035.19
2023-02-06T10:44:31.087Z,1035.14
2023-02-06T10:45:31.135Z,1035.17
2023-02-06T10:46:31.220Z,1035.17
2023-02-06T10:47:31.201Z,1035.14
2023-02-06T10:48:31.184Z,1035.06
2023-02-06T10:49:31.207Z,1035.09
2023-02-06T10:50:31.235Z,1035.03
2023-02-06T10:51:31.256Z,1035.04
2023-02-06T10:52:31.278Z,1034.97
2023-02-06T10:53:31.304Z,1035.00
2023-02-06T10:54:31.542Z,1035.00
2023-02-06T10:55:31.763Z,1034.96
2023-02-06T10:56:31.373Z,1035.01
2023-02-06T10:57:31.468Z,1034.92
2023-02-06T10:58:31.422Z,1034.92
2023-02-06T10:59:31.453Z,1034.95
2023-02-06T11:00:31.489Z,1034.90
2023-02-06T11:01:31.526Z,1034.83
2023-02-06T11:02:31.637Z,1034.86
2023-02-06T11:03:31.544Z,1034.77
2023-02-06T11:04:31.567Z,1034.74
2023-02-06T11:05:31.605Z,1034.74
2023-02-06T11:06:31.617Z,1034.81
2023-02-06T11:07:31.640Z,1034.76
2023-02-06T11:08:31.666Z,1034.74
2023-02-06T11:09:31.689Z,1034.73
2023-02-06T11:10:31.711Z,1034.70
2023-02-06T11:11:31.743Z,1034.66
2023-02-06T11:12:31.910Z,1034.65
2023-02-06T11:13:31.803Z,1034.68
2023-02-06T11:14:31.812Z,1034.72
2023-02-06T11:15:31.834Z,1034.68
2023-02-06T11:16:31.906Z,1034.70
2023-02-06T11:17:31.884Z,1034.67
2023-02-06T11:18:34.527Z,1034.63
2023-02-06T11:19:31.932Z,1034.64
2023-02-06T11:20:31.959Z,1034.59
2023-02-06T11:21:31.980Z,1034.64
2023-02-06T11:22:36.652Z,1034.57
2023-02-06T11:23:32.033Z,1034.57
2023-02-06T11:24:32.049Z,1034.63
2023-02-06T11:25:32.080Z,1034.61
2023-02-06T11:26:32.101Z,1034.58
2023-02-06T11:27:32.125Z,1034.59
2023-02-06T11:28:32.147Z,1034.52
2023-02-06T11:29:32.333Z,1034.50
2023-02-06T11:30:32.342Z,1034.47
2023-02-06T11:31:32.255Z,1034.51
2023-02-06T11:32:32.245Z,1034.45
2023-02-06T11:33:32.272Z,1034.46
2023-02-06T11:34:32.295Z,1034.44
2023-02-06T11:35:32.319Z,1034.47
2023-02-06T11:36:32.340Z,1034.51
2023-02-06T11:37:32.544Z,1034.49
2023-02-06T11:38:32.387Z,1034.49
2023-02-06T11:39:32.426Z,1034.42
2023-02-06T11:40:32.437Z,1034.37
2023-02-06T11:41:32.477Z,1034.37
2023-02-06T11:42:32.495Z,1034.36
2023-02-06T11:43:32.525Z,1034.31
2023-02-06T11:44:32.535Z,1034.26
2023-02-06T11:45:32.826Z,1034.29
2023-02-06T11:46:32.579Z,1034.29
2023-02-06T11:47:32.607Z,1034.28
2023-02-06T11:48:32.632Z,1034.28
2023-02-06T11:49:32.656Z,1034.28
2023-02-06T11:50:32.676Z,1034.39
2023-02-06T11:51:32.703Z,1034.36
2023-02-06T11:52:32.723Z,1034.32
2023-02-06T11:53:32.754Z,1034.26
2023-02-06T11:54:32.776Z,1034.31
2023-02-06T11:55:32.799Z,1034.35
2023-02-06T11:56:32.821Z,1034.36
2023-02-06T11:57:32.846Z,1034.32
2023-02-06T11:58:32.873Z,1034.33
2023-02-06T11:59:32.894Z,1034.33
2023-02-06T12:00:32.918Z,1034.29
2023-02-06T12:01:32.964Z,1034.26
2023-02-06T12:02:33.026Z,1034.29
2023-02-06T12:03:33.022Z,1034.31
2023-02-06T12:04:33.012Z,1034.30
2023-02-06T12:05:33.041Z,1034.35